Time;durP1;ratioP1;P1;durP2;ratioP2;P2;SDS_P1;SDS_P2;PMS_P1;PMS_P2;Temp;Humidity;BMP_temperature;BMP_pressure;BME280_temperature;BME280_humidity;BME280_pressure;Samples;Min_cycle;Max_cycle;Signal;HPM_P1;HPM_P2
2023/07/17 00:00:15;;;;;;;6.80;4.90;;;;;;;19.00;76.70;100285.58;128937;1281;114734;-71
2023/07/17 00:03:37;;;;;;;9.80;4.80;;;;;;;19.01;76.89;100290.70;128960;1270;114773;-71
2023/07/17 00:06:39;;;;;;;5.40;4.80;;;;;;;19.03;77.18;100284.80;129032;1279;115287;-65
2023/07/17 00:09:43;;;;;;;5.30;4.80;;;;;;;19.03;77.10;100284.96;129103;1288;114748;-68
2023/07/17 00:12:45;;;;;;;6.10;5.00;;;;;;;19.03;77.15;100284.59;128836;1270;115117;-71
2023/07/17 00:15:47;;;;;;;9.00;5.30;;;;;;;19.03;77.31;100282.19;129065;1270;114952;-66
2023/07/17 00:18:49;;;;;;;7.40;5.30;;;;;;;19.05;77.36;100277.35;129115;1265;114750;-67
2023/07/17 00:21:52;;;;;;;6.70;5.30;;;;;;;19.06;77.42;100274.72;128870;1288;128347;-64
2023/07/17 00:24:54;;;;;;;8.40;5.70;;;;;;;19.07;77.41;100278.42;129020;1271;116366;-69
2023/07/17 00:27:56;;;;;;;7.20;5.30;;;;;;;19.09;77.66;100286.19;129080;1270;114816;-69
2023/07/17 00:30:59;;;;;;;6.80;5.40;;;;;;;19.12;77.65;100290.14;128909;1267;114837;-71
2023/07/17 00:34:01;;;;;;;7.10;5.10;;;;;;;19.12;77.50;100296.23;129031;1270;114898;-69
2023/07/17 00:37:04;;;;;;;10.30;5.40;;;;;;;19.14;77.53;100291.04;128985;1288;114806;-66
2023/07/17 00:40:08;;;;;;;9.60;5.10;;;;;;;19.16;77.60;100286.54;129157;1269;114663;-69
2023/07/17 00:43:11;;;;;;;9.20;5.60;;;;;;;19.18;77.65;100291.11;129071;1288;128744;-70
2023/07/17 00:46:13;;;;;;;5.30;4.80;;;;;;;19.19;77.79;100292.68;128994;1280;114847;-69
2023/07/17 00:49:17;;;;;;;6.20;4.70;;;;;;;19.19;77.59;100299.33;129040;1283;114759;-70
2023/07/17 00:52:20;;;;;;;5.20;4.70;;;;;;;19.18;77.64;100296.11;129021;1267;114813;-70
2023/07/17 00:55:22;;;;;;;6.30;5.00;;;;;;;19.15;77.24;100303.60;129042;1270;115208;-68
2023/07/17 00:58:25;;;;;;;7.40;4.90;;;;;;;19.12;77.07;100304.10;129072;1288;115200;-69
2023/07/17 01:01:28;;;;;;;6.40;5.00;;;;;;;19.08;77.30;100302.73;129160;1277;114775;-68
2023/07/17 01:04:30;;;;;;;10.70;5.60;;;;;;;19.07;77.35;100305.40;128918;1270;115376;-67
2023/07/17 01:07:32;;;;;;;7.50;5.40;;;;;;;19.05;77.54;100298.16;129102;1267;116475;-64
2023/07/17 01:10:35;;;;;;;6.40;5.30;;;;;;;19.04;77.54;100290.69;129047;1288;114841;-69
2023/07/17 01:13:45;;;;;;;7.20;5.40;;;;;;;19.01;77.50;100299.22;128903;1271;115523;-65
2023/07/17 01:16:48;;;;;;;8.80;5.60;;;;;;;18.99;77.64;100309.15;129403;1278;114806;-63
2023/07/17 01:19:51;;;;;;;8.60;6.30;;;;;;;18.98;77.56;100325.48;129028;1288;128355;-67
2023/07/17 01:22:55;;;;;;;6.90;5.80;;;;;;;18.98;77.60;100340.32;128978;1271;114843;-66
2023/07/17 01:25:58;;;;;;;8.40;5.60;;;;;;;19.00;77.89;100339.27;129052;1267;114751;-65
2023/07/17 01:29:00;;;;;;;7.70;5.50;;;;;;;19.03;77.87;100330.01;129013;1269;114937;-65
2023/07/17 01:32:03;;;;;;;6.10;4.60;;;;;;;19.06;77.80;100338.27;128942;1265;114886;-64
2023/07/17 01:35:06;;;;;;;7.80;5.00;;;;;;;19.08;77.77;100315.77;129161;1265;114688;-62
2023/07/17 01:38:08;;;;;;;9.40;4.80;;;;;;;19.12;77.43;100314.19;128995;1288;127806;-62
2023/07/17 01:41:11;;;;;;;5.50;4.80;;;;;;;19.18;77.38;100313.92;129025;1270;115243;-64
2023/07/17 01:44:13;;;;;;;6.70;5.30;;;;;;;19.22;77.47;100327.09;129048;1280;114841;-63
2023/07/17 01:47:15;;;;;;;7.80;5.30;;;;;;;19.27;77.72;100319.96;128953;1265;114867;-63
2023/07/17 01:50:18;;;;;;;10.40;5.70;;;;;;;19.31;77.67;100321.10;128994;1281;114752;-63
2023/07/17 01:53:21;;;;;;;7.80;5.10;;;;;;;19.35;78.17;100314.27;129042;1288;115474;-64
2023/07/17 01:56:23;;;;;;;6.40;5.10;;;;;;;19.37;78.69;100315.66;129072;1265;114765;-63
2023/07/17 01:59:28;;;;;;;8.40;5.40;;;;;;;19.38;78.91;100331.69;129091;1270;115260;-63
2023/07/17 02:02:31;;;;;;;8.10;5.20;;;;;;;19.40;79.46;100337.73;128963;1265;115301;-63
2023/07/17 02:05:33;;;;;;;6.70;5.30;;;;;;;19.40;79.89;100350.92;129008;1266;114736;-62
2023/07/17 02:08:35;;;;;;;8.30;6.10;;;;;;;19.40;80.09;100356.40;128992;1271;114858;-64
2023/07/17 02:11:37;;;;;;;5.70;5.10;;;;;;;19.38;80.08;100361.60;128641;1270;114849;-64
2023/07/17 02:14:39;;;;;;;6.10;5.50;;;;;;;19.35;80.20;100366.02;129074;1269;115394;-63
2023/07/17 02:17:41;;;;;;;6.20;5.60;;;;;;;19.33;80.52;100363.46;129116;1288;114849;-64
2023/07/17 02:20:43;;;;;;;7.00;5.90;;;;;;;19.31;80.68;100368.52;128785;1286;128353;-62
2023/07/17 02:23:45;;;;;;;7.50;5.90;;;;;;;19.30;80.82;100382.39;128908;1288;115016;-64
2023/07/17 02:26:47;;;;;;;8.50;5.50;;;;;;;19.29;80.81;100375.80;129074;1270;115208;-66
2023/07/17 02:29:50;;;;;;;6.20;5.60;;;;;;;19.28;81.06;100379.08;129062;1270;114778;-66
2023/07/17 02:32:52;;;;;;;9.00;4.90;;;;;;;19.28;81.19;100383.05;129043;1265;114911;-70
2023/07/17 02:35:54;;;;;;;10.30;4.90;;;;;;;19.29;81.15;100387.92;128950;1270;114757;-65
2023/07/17 02:38:56;;;;;;;6.80;5.30;;;;;;;19.28;81.19;100392.67;129012;1265;115263;-65
2023/07/17 02:41:58;;;;;;;7.90;5.10;;;;;;;19.30;81.41;100392.20;129008;1271;114795;-68
2023/07/17 02:45:01;;;;;;;8.40;5.70;;;;;;;19.31;81.49;100399.72;128974;1282;114862;-66
2023/07/17 02:48:03;;;;;;;6.10;5.20;;;;;;;19.32;81.71;100406.00;128767;1278;115285;-69
2023/07/17 02:51:05;;;;;;;7.40;5.80;;;;;;;19.32;81.77;100406.53;129118;1269;114893;-65
2023/07/17 02:54:09;;;;;;;7.60;5.00;;;;;;;19.32;81.97;100407.66;128997;1271;114864;-65
2023/07/17 02:57:11;;;;;;;8.10;5.20;;;;;;;19.33;82.09;100408.60;129011;1278;115291;-65
2023/07/17 03:00:15;;;;;;;5.90;4.90;;;;;;;19.34;82.29;100406.68;129140;1265;115688;-63
2023/07/17 03:03:17;;;;;;;6.10;4.90;;;;;;;19.36;82.48;100404.88;128832;1265;127939;-68
2023/07/17 03:06:19;;;;;;;7.90;4.70;;;;;;;19.37;82.55;100408.23;128948;1270;114858;-69
2023/07/17 03:09:22;;;;;;;9.00;4.80;;;;;;;19.38;82.46;100416.52;128995;1288;114808;-74
2023/07/17 03:12:24;;;;;;;6.30;5.10;;;;;;;19.39;82.41;100414.45;129007;1288;114814;-70
2023/07/17 03:15:26;;;;;;;6.00;4.70;;;;;;;19.42;82.59;100422.13;129035;1267;114751;-70
2023/07/17 03:18:28;;;;;;;8.30;5.20;;;;;;;19.45;82.68;100417.56;129316;1267;114893;-75
2023/07/17 03:21:30;;;;;;;10.10;4.70;;;;;;;19.46;82.46;100408.95;129039;1266;115372;-71
2023/07/17 03:24:33;;;;;;;7.00;4.60;;;;;;;19.46;82.22;100395.01;128894;1287;128405;-65
2023/07/17 03:27:35;;;;;;;9.30;5.10;;;;;;;19.47;82.29;100392.34;129012;1271;114785;-83
2023/07/17 03:30:39;;;;;;;7.40;4.70;;;;;;;19.50;82.39;100376.00;128794;1272;211377;-72
2023/07/17 03:33:41;;;;;;;6.40;4.40;;;;;;;19.51;82.58;100368.63;129089;1266;114837;-67
2023/07/17 03:36:43;;;;;;;5.00;4.50;;;;;;;19.53;82.69;100368.86;129360;1265;115313;-70
2023/07/17 03:39:45;;;;;;;4.50;4.10;;;;;;;19.54;82.70;100360.79;129056;1271;115251;-71
2023/07/17 03:42:48;;;;;;;5.70;4.90;;;;;;;19.54;82.61;100358.23;128734;1274;114664;-73
2023/07/17 03:45:51;;;;;;;9.30;4.60;;;;;;;19.54;82.63;100359.30;128961;1269;114880;-72
2023/07/17 03:48:53;;;;;;;4.20;3.80;;;;;;;19.54;82.46;100358.58;129075;1272;114799;-72
2023/07/17 03:51:55;;;;;;;6.80;4.50;;;;;;;19.53;82.57;100363.63;129104;1271;115329;-69
2023/07/17 03:54:57;;;;;;;5.40;4.50;;;;;;;19.52;82.70;100364.92;128821;1265;114969;-69
2023/07/17 03:57:59;;;;;;;6.20;4.00;;;;;;;19.52;82.61;100363.52;129007;1271;114743;-72
2023/07/17 04:01:01;;;;;;;6.00;4.70;;;;;;;19.53;82.85;100359.19;129059;1280;114834;-73
2023/07/17 04:04:05;;;;;;;7.20;5.20;;;;;;;19.54;82.73;100355.73;128840;1265;114872;-65
2023/07/17 04:07:07;;;;;;;6.60;5.10;;;;;;;19.55;82.73;100353.85;129043;1266;128765;-72
2023/07/17 04:10:09;;;;;;;5.00;4.40;;;;;;;19.54;82.57;100354.05;128980;1269;115306;-66
2023/07/17 04:13:13;;;;;;;9.80;4.50;;;;;;;19.54;82.60;100351.88;129125;1269;114889;-71
2023/07/17 04:16:18;;;;;;;5.50;4.70;;;;;;;19.56;82.65;100349.02;128838;1267;115085;-68
2023/07/17 04:19:20;;;;;;;7.00;5.30;;;;;;;19.58;82.67;100348.46;128850;1265;114780;-69
2023/07/17 04:22:22;;;;;;;8.10;5.00;;;;;;;19.61;82.71;100342.63;129042;1270;114860;-72
2023/07/17 04:25:25;;;;;;;11.00;6.20;;;;;;;19.65;82.73;100334.86;129207;1270;114859;-72
2023/07/17 04:28:27;;;;;;;7.10;4.90;;;;;;;19.68;82.50;100328.81;128743;1273;127919;-69
2023/07/17 04:31:29;;;;;;;9.40;5.10;;;;;;;19.65;82.32;100328.28;129090;1269;115427;-69
2023/07/17 04:34:31;;;;;;;12.20;5.10;;;;;;;19.65;82.26;100322.90;129058;1268;115440;-68
2023/07/17 04:37:33;;;;;;;8.50;5.00;;;;;;;19.70;82.39;100324.45;129119;1265;114884;-72
2023/07/17 04:40:35;;;;;;;10.90;6.00;;;;;;;19.79;82.43;100327.64;129033;1270;114765;-70
2023/07/17 04:43:37;;;;;;;8.20;5.10;;;;;;;20.00;82.87;100338.33;129085;1279;114918;-71
2023/07/17 04:46:40;;;;;;;5.90;5.10;;;;;;;20.69;83.85;100347.81;128665;1273;115752;-71
2023/07/17 04:49:42;;;;;;;8.20;4.50;;;;;;;21.72;83.64;100344.76;129040;1281;114734;-64
2023/07/17 04:52:45;;;;;;;7.60;4.50;;;;;;;22.72;82.25;100349.55;129093;1266;114871;-65
2023/07/17 04:55:48;;;;;;;5.30;4.20;;;;;;;23.75;80.88;100353.35;129357;1270;114820;-67
2023/07/17 04:58:50;;;;;;;4.30;3.80;;;;;;;24.80;79.69;100355.61;128974;1271;115269;-70
2023/07/17 05:01:52;;;;;;;7.50;4.60;;;;;;;25.74;78.02;100352.02;128980;1286;115275;-67
2023/07/17 05:04:55;;;;;;;8.30;4.20;;;;;;;26.69;76.02;100358.29;129172;1270;115286;-70
2023/07/17 05:07:57;;;;;;;9.60;4.10;;;;;;;27.37;73.79;100361.91;129138;1269;114874;-69
2023/07/17 05:11:02;;;;;;;11.60;5.40;;;;;;;27.98;72.28;100366.25;129437;1265;114802;-67
2023/07/17 05:14:04;;;;;;;10.50;4.60;;;;;;;28.35;70.27;100368.06;128924;1267;115217;-65
2023/07/17 05:17:06;;;;;;;6.70;3.80;;;;;;;28.58;69.22;100373.91;129084;1265;114860;-69
2023/07/17 05:20:09;;;;;;;8.00;4.00;;;;;;;28.78;67.54;100376.41;129041;1270;114810;-67
2023/07/17 05:23:12;;;;;;;6.80;3.80;;;;;;;28.91;66.30;100376.39;128986;1265;114801;-65
2023/07/17 05:26:14;;;;;;;6.40;3.80;;;;;;;29.01;64.95;100375.87;128942;1270;114716;-64
2023/07/17 05:29:16;;;;;;;7.20;4.60;;;;;;;29.13;64.06;100378.36;129113;1288;114782;-70
2023/07/17 05:32:18;;;;;;;8.60;3.80;;;;;;;29.19;63.00;100379.36;129548;1265;114829;-66
2023/07/17 05:35:21;;;;;;;5.40;4.00;;;;;;;29.17;62.34;100376.06;129428;1288;115268;-68
2023/07/17 05:38:23;;;;;;;7.90;3.90;;;;;;;29.04;61.46;100372.91;129035;1270;114852;-66
2023/07/17 05:41:26;;;;;;;9.60;4.20;;;;;;;28.97;61.09;100376.54;129399;1265;114772;-65
2023/07/17 05:44:29;;;;;;;9.60;3.80;;;;;;;29.02;61.16;100377.61;129027;1267;115403;-65
2023/07/17 05:47:31;;;;;;;6.80;3.60;;;;;;;29.06;60.62;100373.20;129043;1265;114758;-68
2023/07/17 05:50:33;;;;;;;6.60;3.60;;;;;;;29.04;59.97;100368.16;128913;1281;114930;-68
2023/07/17 05:53:35;;;;;;;8.00;3.20;;;;;;;29.08;59.55;100367.49;128802;1283;119660;-67
2023/07/17 05:56:39;;;;;;;7.90;3.50;;;;;;;29.26;59.30;100365.92;129192;1270;116426;-65
2023/07/17 05:59:41;;;;;;;6.40;3.30;;;;;;;29.51;59.02;100364.59;128996;1268;114814;-65
2023/07/17 06:02:44;;;;;;;6.50;3.80;;;;;;;29.73;58.05;100371.73;129175;1269;114951;-64
2023/07/17 06:05:46;;;;;;;6.70;3.70;;;;;;;29.87;57.53;100368.35;129102;1280;115117;-66
2023/07/17 06:08:48;;;;;;;5.00;3.10;;;;;;;30.08;57.00;100362.05;129257;1265;114741;-68
2023/07/17 06:11:50;;;;;;;7.40;3.60;;;;;;;30.31;56.29;100360.20;129360;1265;114751;-65
2023/07/17 06:14:52;;;;;;;6.80;3.20;;;;;;;30.43;55.86;100351.81;129100;1265;119885;-68
2023/07/17 06:17:55;;;;;;;8.20;3.50;;;;;;;30.63;55.19;100344.55;129278;1270;114851;-68
2023/07/17 06:20:57;;;;;;;6.70;3.90;;;;;;;30.91;54.95;100339.73;129194;1272;115461;-67
2023/07/17 06:24:00;;;;;;;7.90;3.30;;;;;;;31.09;53.86;100339.89;129263;1270;114921;-67
2023/07/17 06:27:02;;;;;;;7.30;3.50;;;;;;;31.02;53.47;100335.41;129309;1288;115046;-65
2023/07/17 06:30:05;;;;;;;8.50;3.80;;;;;;;31.06;53.08;100329.17;129207;1265;115216;-66
2023/07/17 06:33:08;;;;;;;7.80;3.90;;;;;;;31.29;52.44;100328.05;129433;1288;114838;-67
2023/07/17 06:36:10;;;;;;;5.70;3.60;;;;;;;31.47;52.03;100328.09;129001;1288;114817;-68
2023/07/17 06:39:13;;;;;;;6.20;3.90;;;;;;;31.72;51.57;100328.80;129475;1269;114805;-69
2023/07/17 06:42:15;;;;;;;7.60;3.60;;;;;;;31.58;50.86;100324.15;128761;1274;114878;-69
2023/07/17 06:45:17;;;;;;;6.90;3.60;;;;;;;31.34;50.48;100318.38;129358;1285;114821;-69
2023/07/17 06:48:19;;;;;;;12.60;3.80;;;;;;;31.21;50.83;100314.04;129337;1288;114754;-70
2023/07/17 06:51:22;;;;;;;8.30;3.50;;;;;;;31.07;49.90;100316.95;129302;1282;114834;-71
2023/07/17 06:54:24;;;;;;;8.10;4.00;;;;;;;31.02;49.37;100324.98;129223;1288;114783;-70
2023/07/17 06:57:26;;;;;;;7.00;3.40;;;;;;;31.20;49.29;100324.20;129256;1265;114786;-69
2023/07/17 07:00:28;;;;;;;6.80;3.80;;;;;;;31.63;49.32;100323.65;129332;1271;114775;-70
2023/07/17 07:03:30;;;;;;;7.90;3.90;;;;;;;31.95;48.71;100327.49;128696;1270;115016;-68
2023/07/17 07:06:32;;;;;;;6.50;3.40;;;;;;;32.09;47.82;100327.15;129322;1270;114756;-70
2023/07/17 07:09:35;;;;;;;7.00;3.80;;;;;;;32.35;47.30;100321.48;129154;1269;114791;-70
2023/07/17 07:12:36;;;;;;;7.30;3.60;;;;;;;32.46;46.22;100322.76;129195;1273;114736;-69
2023/07/17 07:15:40;;;;;;;11.70;3.30;;;;;;;32.71;46.18;100320.42;129262;1270;114792;-68
2023/07/17 07:18:42;;;;;;;6.40;3.80;;;;;;;32.98;45.12;100315.79;129431;1283;114772;-70
2023/07/17 07:21:44;;;;;;;9.10;3.60;;;;;;;33.20;44.20;100312.51;129346;1283;115158;-70
2023/07/17 07:24:46;;;;;;;6.60;3.80;;;;;;;33.15;44.50;100318.60;129021;1265;115362;-71
2023/07/17 07:27:48;;;;;;;8.20;3.60;;;;;;;33.11;44.70;100318.09;129312;1270;114753;-73
2023/07/17 07:31:00;;;;;;;7.20;3.30;;;;;;;33.25;44.30;100310.66;129382;1280;114812;-71
2023/07/17 07:34:02;;;;;;;6.10;3.90;;;;;;;33.20;43.94;100307.67;128719;1273;115369;-71
2023/07/17 07:37:05;;;;;;;7.70;3.70;;;;;;;33.07;43.66;100305.47;129354;1269;114787;-71
2023/07/17 07:40:10;;;;;;;4.90;3.10;;;;;;;32.96;43.23;100319.25;129069;1284;114770;-69
2023/07/17 07:43:12;;;;;;;9.30;3.40;;;;;;;33.01;43.41;100330.15;129341;1270;114823;-69
2023/07/17 07:46:15;;;;;;;5.90;3.80;;;;;;;33.03;43.64;100333.38;129357;1265;115435;-73
2023/07/17 07:49:17;;;;;;;11.70;3.70;;;;;;;32.93;43.57;100340.45;129149;1267;114826;-67
2023/07/17 07:52:19;;;;;;;10.30;3.90;;;;;;;32.77;43.24;100347.95;129207;1288;114785;-72
2023/07/17 07:55:22;;;;;;;9.60;3.80;;;;;;;32.78;43.25;100348.23;129307;1271;118969;-70
2023/07/17 07:58:24;;;;;;;8.60;4.10;;;;;;;32.79;43.51;100347.59;129328;1269;114859;-71
2023/07/17 08:01:27;;;;;;;6.10;3.10;;;;;;;32.65;43.07;100362.01;129385;1283;114775;-67
2023/07/17 08:04:30;;;;;;;;;;;;;;;32.37;42.83;100363.34;129102;1273;114862;-71
2023/07/17 08:07:32;;;;;;;6.70;2.90;;;;;;;32.16;43.36;100368.88;129506;1272;114772;-72
2023/07/17 08:10:38;;;;;;;6.40;3.50;;;;;;;32.06;43.58;100373.13;129140;1288;115147;-72
2023/07/17 08:13:40;;;;;;;3.50;3.10;;;;;;;31.93;43.47;100378.23;129075;1286;114968;-70
2023/07/17 08:16:43;;;;;;;6.20;3.00;;;;;;;31.72;43.66;100380.11;129177;1265;114752;-65
2023/07/17 08:19:45;;;;;;;4.60;2.70;;;;;;;31.59;44.15;100377.33;129196;1265;115652;-71
2023/07/17 08:22:50;;;;;;;4.40;3.20;;;;;;;31.43;44.46;100375.08;128824;1288;115022;-70
2023/07/17 08:25:52;;;;;;;7.40;3.30;;;;;;;31.43;45.07;100369.23;129134;1273;114846;-68
2023/07/17 08:28:54;;;;;;;5.20;2.80;;;;;;;31.56;45.31;100365.88;129351;1271;115159;-70
2023/07/17 08:31:56;;;;;;;5.50;3.10;;;;;;;31.65;45.04;100373.33;129066;1288;115212;-71
2023/07/17 08:34:58;;;;;;;5.30;3.30;;;;;;;31.62;44.87;100373.63;129063;1288;114852;-68
2023/07/17 08:38:00;;;;;;;4.10;2.70;;;;;;;31.57;44.84;100370.17;129336;1270;115442;-71
2023/07/17 08:41:02;;;;;;;4.60;3.30;;;;;;;31.49;44.96;100365.45;129001;1270;114747;-71
2023/07/17 08:44:05;;;;;;;4.10;2.80;;;;;;;31.43;45.28;100363.45;129084;1288;114756;-72
2023/07/17 08:47:08;;;;;;;5.10;2.70;;;;;;;31.40;45.62;100375.92;129024;1269;114860;-72
2023/07/17 08:50:11;;;;;;;4.60;3.10;;;;;;;31.33;45.66;100380.17;129337;1269;115243;-71
2023/07/17 08:53:15;;;;;;;3.80;2.50;;;;;;;31.28;45.87;100384.30;129100;1288;114760;-70
2023/07/17 08:56:17;;;;;;;4.00;2.60;;;;;;;31.41;46.32;100388.14;129382;1269;114778;-67
2023/07/17 08:59:20;;;;;;;6.70;3.30;;;;;;;31.55;46.59;100390.70;129038;1270;114842;-69
2023/07/17 09:02:22;;;;;;;5.80;3.10;;;;;;;31.66;46.55;100391.73;128988;1269;114813;-69
2023/07/17 09:05:24;;;;;;;5.60;3.20;;;;;;;31.72;46.73;100386.98;129325;1270;115009;-69
2023/07/17 09:08:26;;;;;;;7.30;3.00;;;;;;;31.79;47.07;100386.08;129330;1285;114743;-66
2023/07/17 09:11:28;;;;;;;5.70;3.50;;;;;;;31.83;46.94;100385.70;129278;1268;114760;-72
2023/07/17 09:14:31;;;;;;;3.80;2.90;;;;;;;31.84;46.98;100381.90;129065;1288;114711;-64
2023/07/17 09:17:33;;;;;;;3.50;3.20;;;;;;;31.99;47.10;100385.08;129023;1288;114804;-71
2023/07/17 09:20:35;;;;;;;6.70;3.00;;;;;;;32.21;47.19;100383.59;129425;1270;114858;-72
2023/07/17 09:23:40;;;;;;;6.00;3.30;;;;;;;32.45;46.91;100379.08;129397;1265;114758;-68
2023/07/17 09:26:42;;;;;;;5.90;3.30;;;;;;;32.65;46.84;100373.33;129361;1268;114750;-72
2023/07/17 09:29:44;;;;;;;6.80;3.00;;;;;;;32.71;45.67;100372.57;129164;1273;114855;-70
2023/07/17 09:32:47;;;;;;;4.40;3.00;;;;;;;32.70;45.82;100368.86;128933;1288;114795;-66
2023/07/17 09:35:56;;;;;;;6.40;3.50;;;;;;;32.70;45.53;100367.48;129361;1270;114773;-66
2023/07/17 09:38:59;;;;;;;4.20;2.90;;;;;;;32.66;44.92;100365.77;129065;1288;115014;-65
2023/07/17 09:42:01;;;;;;;6.60;3.40;;;;;;;32.58;43.97;100362.77;129450;1269;114942;-69
2023/07/17 09:45:04;;;;;;;6.70;3.50;;;;;;;32.55;43.99;100359.89;128977;1278;115312;-69
2023/07/17 09:48:06;;;;;;;4.90;3.60;;;;;;;32.52;43.83;100357.46;129152;1286;115126;-71
2023/07/17 09:51:10;;;;;;;6.50;3.30;;;;;;;32.41;44.02;100354.00;129464;1271;114805;-67
2023/07/17 09:54:12;;;;;;;15.80;3.50;;;;;;;32.45;44.32;100348.58;129422;1271;120016;-67
2023/07/17 09:57:26;;;;;;;8.20;3.50;;;;;;;32.61;44.01;100342.73;129300;1270;114822;-69
2023/07/17 10:00:29;;;;;;;8.40;3.70;;;;;;;32.60;43.38;100338.61;129294;1288;115327;-70
2023/07/17 10:03:32;;;;;;;4.70;3.20;;;;;;;32.49;43.34;100344.00;128874;1288;114847;-70
2023/07/17 10:06:35;;;;;;;5.70;3.40;;;;;;;32.40;43.62;100342.20;129140;1288;114864;-71
2023/07/17 10:09:39;;;;;;;7.60;3.70;;;;;;;32.33;43.41;100347.77;128922;1286;114856;-70
2023/07/17 10:12:41;;;;;;;5.30;3.60;;;;;;;32.16;42.98;100350.41;129276;1288;114803;-68
2023/07/17 10:15:44;;;;;;;3.70;3.20;;;;;;;32.05;43.17;100343.62;129121;1270;115110;-71
2023/07/17 10:18:48;;;;;;;3.80;3.20;;;;;;;31.97;43.22;100336.05;128948;1270;114839;-71
2023/07/17 10:21:54;;;;;;;7.70;3.50;;;;;;;31.87;42.76;100330.66;129403;1286;114758;-73
2023/07/17 10:24:57;;;;;;;7.40;3.30;;;;;;;31.70;42.60;100328.67;128854;1283;119896;-71
2023/07/17 10:28:01;;;;;;;4.50;3.20;;;;;;;31.67;42.81;100327.60;129060;1288;114724;-68
2023/07/17 10:31:27;;;;;;;8.40;3.80;;;;;;;31.71;42.81;100326.34;128854;1270;115246;-72
2023/07/17 10:35:02;;;;;;;7.00;4.20;;;;;;;31.84;42.47;100330.89;128792;1288;114766;-70
2023/07/17 10:38:10;;;;;;;;;;;;;;;31.96;41.94;100326.64;128658;1277;115031;-71
2023/07/17 10:41:12;;;;;;;4.40;3.20;;;;;;;32.00;41.66;100322.15;128261;1278;119392;-73
2023/07/17 10:44:20;;;;;;;6.70;3.40;;;;;;;31.99;41.37;100320.40;128426;1276;115162;-73
2023/07/17 10:47:22;;;;;;;5.20;3.60;;;;;;;32.03;41.29;100320.42;128517;1274;114903;-73
2023/07/17 10:50:24;;;;;;;11.00;3.90;;;;;;;32.09;40.66;100321.69;128656;1287;115309;-70
2023/07/17 10:53:26;;;;;;;10.40;3.80;;;;;;;32.16;40.61;100315.27;128527;1295;115409;-72
2023/07/17 10:56:31;;;;;;;5.60;4.10;;;;;;;32.22;40.47;100312.94;128449;1274;114892;-72
2023/07/17 10:59:34;;;;;;;11.20;3.90;;;;;;;32.25;40.33;100309.40;128251;1295;119457;-72
2023/07/17 11:02:36;;;;;;;8.50;3.50;;;;;;;32.25;40.38;100310.14;128467;1295;115398;-73
2023/07/17 11:05:41;;;;;;;6.50;3.80;;;;;;;32.37;40.52;100301.42;128629;1277;114945;-73
2023/07/17 11:08:50;;;;;;;10.10;3.70;;;;;;;32.44;40.14;100295.08;128646;1276;114916;-71
2023/07/17 11:11:52;;;;;;;8.30;3.90;;;;;;;32.45;39.80;100294.05;128392;1277;114862;-73
2023/07/17 11:14:54;;;;;;;9.10;3.90;;;;;;;32.41;39.68;100293.15;128851;1288;114757;-74
2023/07/17 11:17:58;;;;;;;7.30;3.90;;;;;;;32.32;39.06;100290.31;129383;1270;114752;-73
2023/07/17 11:21:00;;;;;;;;;;;;;;;32.26;39.41;100283.35;129125;1273;116402;-72
2023/07/17 11:24:06;;;;;;;3.80;3.40;;;;;;;32.33;39.22;100283.32;129312;1270;115388;-70
2023/07/17 11:27:08;;;;;;;9.20;3.70;;;;;;;32.34;38.96;100280.68;128999;1269;114871;-72
2023/07/17 11:30:19;;;;;;;6.90;3.10;;;;;;;32.26;38.67;100276.23;129281;1288;115220;-74
2023/07/17 11:33:21;;;;;;;7.00;3.80;;;;;;;32.21;38.59;100275.38;129334;1279;119705;-72
2023/07/17 11:36:25;;;;;;;5.00;3.40;;;;;;;32.14;38.46;100271.65;129301;1269;114819;-73
2023/07/17 11:39:31;;;;;;;5.60;3.20;;;;;;;32.04;38.08;100274.29;129268;1288;114831;-72
2023/07/17 11:42:56;;;;;;;8.20;3.40;;;;;;;31.88;38.01;100268.98;129288;1278;114839;-73
2023/07/17 11:46:03;;;;;;;5.60;3.80;;;;;;;31.76;37.76;100267.31;129183;1278;114748;-73
2023/07/17 11:49:05;;;;;;;4.40;3.40;;;;;;;31.62;37.74;100271.92;129204;1270;120205;-73
2023/07/17 11:52:17;;;;;;;4.90;3.80;;;;;;;31.47;37.73;100271.95;129196;1274;114780;-73
2023/07/17 11:55:21;;;;;;;7.60;3.70;;;;;;;31.32;37.18;100272.00;129115;1273;115380;-73
2023/07/17 11:58:24;;;;;;;;;;;;;;;31.21;36.82;100271.80;129216;1270;114775;-73
2023/07/17 12:01:26;;;;;;;7.00;3.90;;;;;;;31.02;35.78;100268.23;129183;1270;114735;-73
2023/07/17 12:04:33;;;;;;;4.90;3.60;;;;;;;30.84;36.38;100263.89;129258;1271;115123;-73
2023/07/17 12:07:35;;;;;;;8.10;4.20;;;;;;;30.77;36.32;100271.87;129126;1265;114924;-73
2023/07/17 12:10:38;;;;;;;5.60;3.80;;;;;;;30.68;36.05;100273.01;129302;1286;115435;-73
2023/07/17 12:13:40;;;;;;;4.10;3.30;;;;;;;30.57;35.96;100272.21;129313;1270;114832;-71
2023/07/17 12:16:43;;;;;;;4.70;3.50;;;;;;;30.50;36.12;100272.55;129344;1269;114813;-73
2023/07/17 12:19:45;;;;;;;5.40;3.80;;;;;;;30.52;36.53;100273.63;129296;1270;114763;-74
2023/07/17 12:22:50;;;;;;;6.40;3.90;;;;;;;30.62;36.61;100271.59;129274;1271;114839;-73
2023/07/17 12:25:52;;;;;;;6.40;3.40;;;;;;;30.72;36.38;100271.27;129268;1265;114815;-74
2023/07/17 12:28:55;;;;;;;7.90;4.70;;;;;;;30.85;36.64;100266.77;129295;1270;115266;-73
2023/07/17 12:31:57;;;;;;;8.00;3.90;;;;;;;31.02;36.66;100270.70;129268;1270;115450;-72
2023/07/17 12:35:00;;;;;;;8.00;3.80;;;;;;;31.13;36.49;100269.81;129419;1288;115080;-68
2023/07/17 12:38:02;;;;;;;6.10;4.20;;;;;;;31.27;36.08;100269.55;129346;1279;114835;-74
2023/07/17 12:41:04;;;;;;;5.90;4.20;;;;;;;31.40;36.03;100269.57;129327;1271;114808;-71
2023/07/17 12:44:08;;;;;;;8.00;3.90;;;;;;;31.54;35.81;100274.32;129371;1265;114748;-75
2023/07/17 12:47:10;;;;;;;5.40;4.00;;;;;;;31.68;35.66;100269.41;129109;1287;115344;-74
2023/07/17 12:50:12;;;;;;;5.60;4.10;;;;;;;31.74;35.29;100266.94;129328;1285;114791;-73
2023/07/17 12:53:14;;;;;;;10.10;4.40;;;;;;;31.78;35.16;100264.70;129356;1270;115222;-74
2023/07/17 12:56:16;;;;;;;5.10;3.90;;;;;;;31.80;35.32;100263.08;128980;1270;114833;-71
2023/07/17 12:59:18;;;;;;;8.50;4.00;;;;;;;31.79;35.10;100252.59;129342;1273;116424;-74
2023/07/17 13:02:21;;;;;;;6.30;4.20;;;;;;;31.79;35.03;100248.50;129416;1267;115535;-70
2023/07/17 13:05:25;;;;;;;8.60;4.40;;;;;;;31.78;34.91;100250.00;129199;1288;119017;-74
2023/07/17 13:08:27;;;;;;;6.40;3.70;;;;;;;31.76;34.60;100254.61;129307;1271;115119;-71
2023/07/17 13:11:29;;;;;;;6.60;4.70;;;;;;;31.62;34.40;100255.61;129323;1269;114844;-73
2023/07/17 13:14:31;;;;;;;6.20;4.10;;;;;;;31.55;34.44;100256.72;129414;1278;115309;-70
2023/07/17 13:17:33;;;;;;;7.10;3.80;;;;;;;31.49;34.08;100250.90;129045;1265;114765;-73
2023/07/17 13:20:35;;;;;;;8.50;4.50;;;;;;;31.42;33.97;100250.44;129365;1271;115249;-74
2023/07/17 13:23:38;;;;;;;6.50;4.20;;;;;;;31.39;34.42;100244.99;129366;1279;115386;-70
2023/07/17 13:26:40;;;;;;;6.20;4.00;;;;;;;31.43;34.48;100245.33;129270;1271;120422;-75
2023/07/17 13:29:42;;;;;;;5.80;4.40;;;;;;;31.48;34.46;100245.33;129278;1265;115018;-74
2023/07/17 13:32:44;;;;;;;11.40;4.20;;;;;;;31.55;34.17;100243.10;129357;1270;115900;-74
2023/07/17 13:35:46;;;;;;;5.50;4.00;;;;;;;31.62;33.86;100237.64;129253;1271;114931;-75
2023/07/17 13:38:48;;;;;;;11.00;4.70;;;;;;;31.66;33.65;100234.37;129356;1270;114757;-72
2023/07/17 13:41:51;;;;;;;7.10;4.10;;;;;;;31.61;33.22;100229.70;129420;1270;115141;-75
2023/07/17 13:44:58;;;;;;;7.90;4.60;;;;;;;31.47;33.13;100230.92;129364;1271;114826;-73
2023/07/17 13:48:00;;;;;;;6.90;5.00;;;;;;;31.35;33.40;100234.77;129373;1278;120143;-74
2023/07/17 13:51:02;;;;;;;6.80;4.40;;;;;;;31.26;33.19;100232.88;129228;1270;115191;-74